sensor_id;sensor_type;location;lat;lon;timestamp;P1;durP1;ratioP1;P2;durP2;ratioP2
32505;SDS011;18955;51.224;8.482;2023-04-06T00:02:19;7.25;;;4.10;;
32505;SDS011;18955;51.224;8.482;2023-04-06T00:04:45;7.03;;;4.53;;
32505;SDS011;18955;51.224;8.482;2023-04-06T00:07:11;6.88;;;4.30;;
32505;SDS011;18955;51.224;8.482;2023-04-06T00:09:38;8.70;;;4.32;;
32505;SDS011;18955;51.224;8.482;2023-04-06T00:12:04;6.13;;;3.75;;
32505;SDS011;18955;51.224;8.482;2023-04-06T00:14:31;12.95;;;4.53;;
32505;SDS011;18955;51.224;8.482;2023-04-06T00:16:57;5.45;;;4.32;;
32505;SDS011;18955;51.224;8.482;2023-04-06T00:19:23;6.72;;;4.45;;
32505;SDS011;18955;51.224;8.482;2023-04-06T00:21:50;7.15;;;4.43;;
32505;SDS011;18955;51.224;8.482;2023-04-06T00:24:16;6.50;;;4.80;;
32505;SDS011;18955;51.224;8.482;2023-04-06T00:26:42;6.13;;;4.15;;
32505;SDS011;18955;51.224;8.482;2023-04-06T00:29:08;8.65;;;4.32;;
32505;SDS011;18955;51.224;8.482;2023-04-06T00:31:35;6.72;;;4.13;;
32505;SDS011;18955;51.224;8.482;2023-04-06T00:34:01;4.88;;;3.78;;
32505;SDS011;18955;51.224;8.482;2023-04-06T00:36:27;6.75;;;4.57;;
32505;SDS011;18955;51.224;8.482;2023-04-06T00:38:53;6.03;;;4.68;;
32505;SDS011;18955;51.224;8.482;2023-04-06T00:41:20;5.78;;;3.92;;
32505;SDS011;18955;51.224;8.482;2023-04-06T00:43:46;6.78;;;4.07;;
32505;SDS011;18955;51.224;8.482;2023-04-06T00:46:13;7.13;;;4.53;;
32505;SDS011;18955;51.224;8.482;2023-04-06T00:48:39;11.18;;;5.15;;
32505;SDS011;18955;51.224;8.482;2023-04-06T00:51:06;6.78;;;3.95;;
32505;SDS011;18955;51.224;8.482;2023-04-06T00:53:32;5.78;;;3.15;;
32505;SDS011;18955;51.224;8.482;2023-04-06T00:56:01;7.90;;;4.18;;
32505;SDS011;18955;51.224;8.482;2023-04-06T00:58:33;5.55;;;4.20;;
32505;SDS011;18955;51.224;8.482;2023-04-06T01:01:05;6.88;;;4.20;;
32505;SDS011;18955;51.224;8.482;2023-04-06T01:03:34;9.75;;;4.53;;
32505;SDS011;18955;51.224;8.482;2023-04-06T01:06:00;7.53;;;4.63;;
32505;SDS011;18955;51.224;8.482;2023-04-06T01:08:34;6.25;;;4.00;;
32505;SDS011;18955;51.224;8.482;2023-04-06T01:11:14;5.38;;;4.10;;
32505;SDS011;18955;51.224;8.482;2023-04-06T01:13:41;5.10;;;4.00;;
32505;SDS011;18955;51.224;8.482;2023-04-06T01:16:14;6.22;;;4.22;;
32505;SDS011;18955;51.224;8.482;2023-04-06T01:19:00;5.72;;;4.03;;
32505;SDS011;18955;51.224;8.482;2023-04-06T01:21:30;6.78;;;4.43;;
32505;SDS011;18955;51.224;8.482;2023-04-06T01:24:16;9.45;;;4.82;;
32505;SDS011;18955;51.224;8.482;2023-04-06T01:27:03;6.40;;;4.28;;
32505;SDS011;18955;51.224;8.482;2023-04-06T01:29:47;7.20;;;4.85;;
32505;SDS011;18955;51.224;8.482;2023-04-06T01:32:20;7.25;;;4.78;;
32505;SDS011;18955;51.224;8.482;2023-04-06T01:34:49;10.98;;;5.57;;
32505;SDS011;18955;51.224;8.482;2023-04-06T01:37:16;6.38;;;4.40;;
32505;SDS011;18955;51.224;8.482;2023-04-06T01:39:43;6.80;;;4.95;;
32505;SDS011;18955;51.224;8.482;2023-04-06T01:42:16;6.35;;;5.05;;
32505;SDS011;18955;51.224;8.482;2023-04-06T01:44:44;9.27;;;5.18;;
32505;SDS011;18955;51.224;8.482;2023-04-06T01:47:13;10.27;;;5.28;;
32505;SDS011;18955;51.224;8.482;2023-04-06T01:49:40;10.52;;;4.88;;
32505;SDS011;18955;51.224;8.482;2023-04-06T01:52:07;7.57;;;4.88;;
32505;SDS011;18955;51.224;8.482;2023-04-06T01:54:37;8.80;;;4.90;;
32505;SDS011;18955;51.224;8.482;2023-04-06T01:57:21;5.22;;;4.20;;
32505;SDS011;18955;51.224;8.482;2023-04-06T01:59:57;7.57;;;4.93;;
32505;SDS011;18955;51.224;8.482;2023-04-06T02:02:43;8.77;;;4.90;;
32505;SDS011;18955;51.224;8.482;2023-04-06T02:05:19;8.07;;;5.20;;
32505;SDS011;18955;51.224;8.482;2023-04-06T02:07:46;8.95;;;4.75;;
32505;SDS011;18955;51.224;8.482;2023-04-06T02:10:17;9.95;;;4.47;;
32505;SDS011;18955;51.224;8.482;2023-04-06T02:12:44;7.25;;;4.65;;
32505;SDS011;18955;51.224;8.482;2023-04-06T02:15:16;6.95;;;4.82;;
32505;SDS011;18955;51.224;8.482;2023-04-06T02:17:42;11.15;;;5.22;;
32505;SDS011;18955;51.224;8.482;2023-04-06T02:20:09;8.95;;;4.93;;
32505;SDS011;18955;51.224;8.482;2023-04-06T02:22:35;9.40;;;5.25;;
32505;SDS011;18955;51.224;8.482;2023-04-06T02:27:28;10.05;;;5.32;;
32505;SDS011;18955;51.224;8.482;2023-04-06T02:29:54;10.93;;;4.85;;
32505;SDS011;18955;51.224;8.482;2023-04-06T02:32:21;8.15;;;4.30;;
32505;SDS011;18955;51.224;8.482;2023-04-06T02:34:48;7.45;;;5.28;;
32505;SDS011;18955;51.224;8.482;2023-04-06T02:37:16;8.30;;;5.38;;
32505;SDS011;18955;51.224;8.482;2023-04-06T02:39:42;6.80;;;3.90;;
32505;SDS011;18955;51.224;8.482;2023-04-06T02:42:09;6.22;;;5.10;;
32505;SDS011;18955;51.224;8.482;2023-04-06T02:44:35;9.48;;;4.72;;
32505;SDS011;18955;51.224;8.482;2023-04-06T02:47:02;8.80;;;5.00;;
32505;SDS011;18955;51.224;8.482;2023-04-06T02:49:28;5.88;;;4.70;;
32505;SDS011;18955;51.224;8.482;2023-04-06T02:51:57;10.30;;;5.15;;
32505;SDS011;18955;51.224;8.482;2023-04-06T02:54:28;8.73;;;4.97;;
32505;SDS011;18955;51.224;8.482;2023-04-06T02:56:55;9.05;;;4.97;;
32505;SDS011;18955;51.224;8.482;2023-04-06T02:59:25;7.05;;;4.43;;
32505;SDS011;18955;51.224;8.482;2023-04-06T03:02:11;10.52;;;6.45;;
32505;SDS011;18955;51.224;8.482;2023-04-06T03:04:37;8.43;;;4.75;;
32505;SDS011;18955;51.224;8.482;2023-04-06T03:07:08;10.07;;;5.88;;
32505;SDS011;18955;51.224;8.482;2023-04-06T03:09:37;11.57;;;4.95;;
32505;SDS011;18955;51.224;8.482;2023-04-06T03:12:04;11.85;;;5.20;;
32505;SDS011;18955;51.224;8.482;2023-04-06T03:14:39;8.02;;;5.28;;
32505;SDS011;18955;51.224;8.482;2023-04-06T03:17:05;9.90;;;6.13;;
32505;SDS011;18955;51.224;8.482;2023-04-06T03:19:32;6.45;;;3.78;;
32505;SDS011;18955;51.224;8.482;2023-04-06T03:22:01;10.63;;;4.97;;
32505;SDS011;18955;51.224;8.482;2023-04-06T03:26:53;8.05;;;5.05;;
32505;SDS011;18955;51.224;8.482;2023-04-06T03:29:21;13.93;;;4.88;;
32505;SDS011;18955;51.224;8.482;2023-04-06T03:31:47;6.38;;;4.70;;
32505;SDS011;18955;51.224;8.482;2023-04-06T03:34:25;9.82;;;5.10;;
32505;SDS011;18955;51.224;8.482;2023-04-06T03:36:51;11.05;;;4.97;;
32505;SDS011;18955;51.224;8.482;2023-04-06T03:39:18;8.07;;;4.50;;
32505;SDS011;18955;51.224;8.482;2023-04-06T03:41:44;9.98;;;5.07;;
32505;SDS011;18955;51.224;8.482;2023-04-06T03:44:32;7.72;;;5.28;;
32505;SDS011;18955;51.224;8.482;2023-04-06T03:46:58;8.25;;;5.43;;
32505;SDS011;18955;51.224;8.482;2023-04-06T03:49:25;7.13;;;5.38;;
32505;SDS011;18955;51.224;8.482;2023-04-06T03:51:53;13.50;;;5.05;;
32505;SDS011;18955;51.224;8.482;2023-04-06T03:54:19;9.48;;;5.07;;
32505;SDS011;18955;51.224;8.482;2023-04-06T03:56:46;9.02;;;4.80;;
32505;SDS011;18955;51.224;8.482;2023-04-06T03:59:12;5.50;;;4.13;;
32505;SDS011;18955;51.224;8.482;2023-04-06T04:01:38;12.15;;;5.57;;
32505;SDS011;18955;51.224;8.482;2023-04-06T04:04:05;8.45;;;5.63;;
32505;SDS011;18955;51.224;8.482;2023-04-06T04:06:31;8.30;;;5.35;;
32505;SDS011;18955;51.224;8.482;2023-04-06T04:08:57;11.82;;;5.30;;
32505;SDS011;18955;51.224;8.482;2023-04-06T04:11:23;9.25;;;5.70;;
32505;SDS011;18955;51.224;8.482;2023-04-06T04:13:56;9.20;;;4.93;;
32505;SDS011;18955;51.224;8.482;2023-04-06T04:16:22;5.22;;;3.90;;
32505;SDS011;18955;51.224;8.482;2023-04-06T04:18:49;15.48;;;6.30;;
32505;SDS011;18955;51.224;8.482;2023-04-06T04:21:15;8.20;;;4.85;;
32505;SDS011;18955;51.224;8.482;2023-04-06T04:23:41;17.73;;;6.00;;
32505;SDS011;18955;51.224;8.482;2023-04-06T04:26:08;10.45;;;5.03;;
32505;SDS011;18955;51.224;8.482;2023-04-06T04:31:00;7.93;;;4.70;;
32505;SDS011;18955;51.224;8.482;2023-04-06T04:33:30;10.20;;;5.45;;
32505;SDS011;18955;51.224;8.482;2023-04-06T04:35:58;13.38;;;6.22;;
32505;SDS011;18955;51.224;8.482;2023-04-06T04:38:29;16.70;;;5.43;;
32505;SDS011;18955;51.224;8.482;2023-04-06T04:40:56;12.10;;;5.72;;
32505;SDS011;18955;51.224;8.482;2023-04-06T04:43:23;16.77;;;5.97;;
32505;SDS011;18955;51.224;8.482;2023-04-06T04:45:49;22.13;;;5.47;;
32505;SDS011;18955;51.224;8.482;2023-04-06T04:48:26;20.85;;;5.25;;
32505;SDS011;18955;51.224;8.482;2023-04-06T04:50:57;13.07;;;4.82;;
32505;SDS011;18955;51.224;8.482;2023-04-06T04:53:28;35.50;;;6.60;;
32505;SDS011;18955;51.224;8.482;2023-04-06T04:56:01;31.08;;;6.57;;
32505;SDS011;18955;51.224;8.482;2023-04-06T05:00:56;22.05;;;5.75;;
32505;SDS011;18955;51.224;8.482;2023-04-06T05:03:23;31.83;;;5.93;;
32505;SDS011;18955;51.224;8.482;2023-04-06T05:06:04;19.45;;;6.05;;
32505;SDS011;18955;51.224;8.482;2023-04-06T05:08:34;27.13;;;6.38;;
32505;SDS011;18955;51.224;8.482;2023-04-06T05:11:01;22.17;;;5.63;;
32505;SDS011;18955;51.224;8.482;2023-04-06T05:13:31;19.42;;;5.78;;
32505;SDS011;18955;51.224;8.482;2023-04-06T05:15:59;39.17;;;7.68;;
32505;SDS011;18955;51.224;8.482;2023-04-06T05:18:29;54.88;;;6.82;;
32505;SDS011;18955;51.224;8.482;2023-04-06T05:20:56;120.00;;;11.30;;
32505;SDS011;18955;51.224;8.482;2023-04-06T05:23:31;35.10;;;7.55;;
32505;SDS011;18955;51.224;8.482;2023-04-06T05:26:00;39.58;;;9.57;;
32505;SDS011;18955;51.224;8.482;2023-04-06T05:28:26;37.55;;;6.13;;
32505;SDS011;18955;51.224;8.482;2023-04-06T05:33:19;19.50;;;6.05;;
32505;SDS011;18955;51.224;8.482;2023-04-06T05:35:59;25.48;;;6.55;;
32505;SDS011;18955;51.224;8.482;2023-04-06T05:38:26;21.65;;;6.32;;
32505;SDS011;18955;51.224;8.482;2023-04-06T05:40:56;19.15;;;6.45;;
32505;SDS011;18955;51.224;8.482;2023-04-06T05:43:26;27.08;;;9.30;;
32505;SDS011;18955;51.224;8.482;2023-04-06T05:45:55;33.83;;;6.70;;
32505;SDS011;18955;51.224;8.482;2023-04-06T05:48:21;26.98;;;6.25;;
32505;SDS011;18955;51.224;8.482;2023-04-06T05:50:50;21.88;;;6.70;;
32505;SDS011;18955;51.224;8.482;2023-04-06T05:53:20;36.30;;;7.55;;
32505;SDS011;18955;51.224;8.482;2023-04-06T05:55:52;25.40;;;7.18;;
32505;SDS011;18955;51.224;8.482;2023-04-06T05:58:20;35.78;;;7.47;;
32505;SDS011;18955;51.224;8.482;2023-04-06T06:00:49;22.17;;;7.00;;
32505;SDS011;18955;51.224;8.482;2023-04-06T06:03:17;25.67;;;6.95;;
32505;SDS011;18955;51.224;8.482;2023-04-06T06:05:50;39.85;;;7.30;;
32505;SDS011;18955;51.224;8.482;2023-04-06T06:08:26;18.00;;;6.45;;
32505;SDS011;18955;51.224;8.482;2023-04-06T06:10:53;38.63;;;8.25;;
32505;SDS011;18955;51.224;8.482;2023-04-06T06:13:22;20.35;;;6.50;;
32505;SDS011;18955;51.224;8.482;2023-04-06T06:15:50;33.28;;;6.88;;
32505;SDS011;18955;51.224;8.482;2023-04-06T06:18:18;14.40;;;6.22;;
32505;SDS011;18955;51.224;8.482;2023-04-06T06:20:47;18.10;;;6.68;;
32505;SDS011;18955;51.224;8.482;2023-04-06T06:23:14;20.92;;;7.15;;
32505;SDS011;18955;51.224;8.482;2023-04-06T06:25:40;34.20;;;7.72;;
32505;SDS011;18955;51.224;8.482;2023-04-06T06:28:07;39.80;;;6.97;;
32505;SDS011;18955;51.224;8.482;2023-04-06T06:30:33;41.28;;;7.45;;
32505;SDS011;18955;51.224;8.482;2023-04-06T06:32:59;40.25;;;8.25;;
32505;SDS011;18955;51.224;8.482;2023-04-06T06:35:27;28.88;;;6.93;;
32505;SDS011;18955;51.224;8.482;2023-04-06T06:37:54;40.38;;;8.20;;
32505;SDS011;18955;51.224;8.482;2023-04-06T06:40:23;39.42;;;8.98;;
32505;SDS011;18955;51.224;8.482;2023-04-06T06:42:50;48.33;;;9.80;;
32505;SDS011;18955;51.224;8.482;2023-04-06T06:45:36;25.83;;;7.40;;
32505;SDS011;18955;51.224;8.482;2023-04-06T06:48:02;28.75;;;7.85;;
32505;SDS011;18955;51.224;8.482;2023-04-06T06:50:29;33.53;;;7.78;;
32505;SDS011;18955;51.224;8.482;2023-04-06T06:52:55;37.75;;;7.15;;
32505;SDS011;18955;51.224;8.482;2023-04-06T06:55:21;59.72;;;7.57;;
32505;SDS011;18955;51.224;8.482;2023-04-06T06:57:48;42.88;;;6.93;;
32505;SDS011;18955;51.224;8.482;2023-04-06T07:00:15;23.20;;;6.78;;
32505;SDS011;18955;51.224;8.482;2023-04-06T07:02:43;31.70;;;7.20;;
32505;SDS011;18955;51.224;8.482;2023-04-06T07:05:10;15.48;;;7.07;;
32505;SDS011;18955;51.224;8.482;2023-04-06T07:07:36;25.52;;;7.93;;
32505;SDS011;18955;51.224;8.482;2023-04-06T07:10:03;17.15;;;5.90;;
32505;SDS011;18955;51.224;8.482;2023-04-06T07:12:30;23.88;;;6.68;;
32505;SDS011;18955;51.224;8.482;2023-04-06T07:14:56;17.92;;;7.00;;
32505;SDS011;18955;51.224;8.482;2023-04-06T07:17:22;28.70;;;7.00;;
32505;SDS011;18955;51.224;8.482;2023-04-06T07:19:49;9.13;;;4.05;;
32505;SDS011;18955;51.224;8.482;2023-04-06T07:22:15;24.70;;;6.30;;
32505;SDS011;18955;51.224;8.482;2023-04-06T07:24:41;46.45;;;8.43;;
32505;SDS011;18955;51.224;8.482;2023-04-06T07:27:08;18.05;;;7.47;;
32505;SDS011;18955;51.224;8.482;2023-04-06T07:29:34;24.70;;;8.00;;
32505;SDS011;18955;51.224;8.482;2023-04-06T07:32:01;36.50;;;7.63;;
32505;SDS011;18955;51.224;8.482;2023-04-06T07:36:54;26.60;;;7.63;;
32505;SDS011;18955;51.224;8.482;2023-04-06T07:39:20;44.95;;;9.13;;
32505;SDS011;18955;51.224;8.482;2023-04-06T07:41:47;23.20;;;8.45;;
32505;SDS011;18955;51.224;8.482;2023-04-06T07:44:13;16.98;;;7.07;;
32505;SDS011;18955;51.224;8.482;2023-04-06T07:49:06;27.63;;;7.75;;
32505;SDS011;18955;51.224;8.482;2023-04-06T07:51:37;13.05;;;6.65;;
32505;SDS011;18955;51.224;8.482;2023-04-06T07:54:04;14.18;;;6.55;;
32505;SDS011;18955;51.224;8.482;2023-04-06T07:56:31;14.73;;;7.40;;
32505;SDS011;18955;51.224;8.482;2023-04-06T07:58:57;17.60;;;7.82;;
32505;SDS011;18955;51.224;8.482;2023-04-06T08:01:24;26.33;;;8.02;;
32505;SDS011;18955;51.224;8.482;2023-04-06T08:03:51;32.08;;;7.97;;
32505;SDS011;18955;51.224;8.482;2023-04-06T08:06:18;16.05;;;7.90;;
32505;SDS011;18955;51.224;8.482;2023-04-06T08:08:44;12.07;;;7.10;;
32505;SDS011;18955;51.224;8.482;2023-04-06T08:11:10;6.43;;;2.95;;
32505;SDS011;18955;51.224;8.482;2023-04-06T08:13:37;18.95;;;8.25;;
32505;SDS011;18955;51.224;8.482;2023-04-06T08:16:03;14.52;;;7.55;;
32505;SDS011;18955;51.224;8.482;2023-04-06T08:20:56;16.05;;;6.78;;
32505;SDS011;18955;51.224;8.482;2023-04-06T08:23:22;3.03;;;2.60;;
32505;SDS011;18955;51.224;8.482;2023-04-06T08:25:48;31.63;;;9.43;;
32505;SDS011;18955;51.224;8.482;2023-04-06T08:28:15;16.60;;;8.60;;
32505;SDS011;18955;51.224;8.482;2023-04-06T08:30:41;19.20;;;8.60;;
32505;SDS011;18955;51.224;8.482;2023-04-06T08:33:08;18.58;;;8.80;;
32505;SDS011;18955;51.224;8.482;2023-04-06T08:35:35;32.40;;;9.70;;
32505;SDS011;18955;51.224;8.482;2023-04-06T08:38:02;25.50;;;7.88;;
32505;SDS011;18955;51.224;8.482;2023-04-06T08:40:28;21.55;;;8.85;;
32505;SDS011;18955;51.224;8.482;2023-04-06T08:42:55;30.23;;;9.25;;
32505;SDS011;18955;51.224;8.482;2023-04-06T08:45:22;29.52;;;9.23;;
32505;SDS011;18955;51.224;8.482;2023-04-06T08:47:49;20.67;;;8.75;;
32505;SDS011;18955;51.224;8.482;2023-04-06T08:50:17;19.80;;;9.32;;
32505;SDS011;18955;51.224;8.482;2023-04-06T08:52:45;20.27;;;9.05;;
32505;SDS011;18955;51.224;8.482;2023-04-06T08:55:13;23.55;;;11.95;;
32505;SDS011;18955;51.224;8.482;2023-04-06T08:57:40;33.55;;;10.10;;
32505;SDS011;18955;51.224;8.482;2023-04-06T09:00:09;48.03;;;10.95;;
32505;SDS011;18955;51.224;8.482;2023-04-06T09:02:38;37.90;;;9.85;;
32505;SDS011;18955;51.224;8.482;2023-04-06T09:05:07;19.23;;;10.50;;
32505;SDS011;18955;51.224;8.482;2023-04-06T09:07:34;13.75;;;5.75;;
32505;SDS011;18955;51.224;8.482;2023-04-06T09:10:01;37.95;;;11.48;;
32505;SDS011;18955;51.224;8.482;2023-04-06T09:12:30;35.25;;;11.07;;
32505;SDS011;18955;51.224;8.482;2023-04-06T09:14:57;45.13;;;11.57;;
32505;SDS011;18955;51.224;8.482;2023-04-06T09:19:52;45.28;;;12.90;;
32505;SDS011;18955;51.224;8.482;2023-04-06T09:22:19;45.40;;;10.48;;
32505;SDS011;18955;51.224;8.482;2023-04-06T09:24:47;30.48;;;12.57;;
32505;SDS011;18955;51.224;8.482;2023-04-06T09:27:15;51.25;;;15.32;;
32505;SDS011;18955;51.224;8.482;2023-04-06T09:29:42;39.13;;;12.45;;
32505;SDS011;18955;51.224;8.482;2023-04-06T09:32:10;28.52;;;13.35;;
32505;SDS011;18955;51.224;8.482;2023-04-06T09:34:40;30.73;;;12.90;;
32505;SDS011;18955;51.224;8.482;2023-04-06T09:37:15;29.02;;;12.05;;
32505;SDS011;18955;51.224;8.482;2023-04-06T09:39:43;34.47;;;13.85;;
32505;SDS011;18955;51.224;8.482;2023-04-06T09:42:12;37.38;;;14.38;;
32505;SDS011;18955;51.224;8.482;2023-04-06T09:44:51;30.90;;;13.25;;
32505;SDS011;18955;51.224;8.482;2023-04-06T09:47:17;19.08;;;8.40;;
32505;SDS011;18955;51.224;8.482;2023-04-06T09:49:45;36.47;;;12.60;;
32505;SDS011;18955;51.224;8.482;2023-04-06T09:52:15;43.10;;;13.48;;
32505;SDS011;18955;51.224;8.482;2023-04-06T09:54:43;23.10;;;10.45;;
32505;SDS011;18955;51.224;8.482;2023-04-06T09:59:58;37.42;;;13.57;;
32505;SDS011;18955;51.224;8.482;2023-04-06T10:02:45;27.10;;;12.50;;
32505;SDS011;18955;51.224;8.482;2023-04-06T10:08:09;23.63;;;11.13;;
32505;SDS011;18955;51.224;8.482;2023-04-06T10:10:37;25.98;;;14.35;;
32505;SDS011;18955;51.224;8.482;2023-04-06T10:13:04;28.10;;;13.88;;
32505;SDS011;18955;51.224;8.482;2023-04-06T10:15:31;27.30;;;13.20;;
32505;SDS011;18955;51.224;8.482;2023-04-06T10:26:11;22.33;;;14.15;;
32505;SDS011;18955;51.224;8.482;2023-04-06T10:28:40;24.20;;;12.38;;
32505;SDS011;18955;51.224;8.482;2023-04-06T10:31:07;22.98;;;12.73;;
32505;SDS011;18955;51.224;8.482;2023-04-06T10:33:34;31.40;;;13.98;;
32505;SDS011;18955;51.224;8.482;2023-04-06T10:36:13;24.67;;;13.18;;
32505;SDS011;18955;51.224;8.482;2023-04-06T10:38:41;32.25;;;11.18;;
32505;SDS011;18955;51.224;8.482;2023-04-06T10:41:11;24.67;;;12.85;;
32505;SDS011;18955;51.224;8.482;2023-04-06T10:43:39;35.22;;;14.70;;
32505;SDS011;18955;51.224;8.482;2023-04-06T10:46:07;22.40;;;12.77;;
32505;SDS011;18955;51.224;8.482;2023-04-06T10:51:08;21.13;;;11.98;;
32505;SDS011;18955;51.224;8.482;2023-04-06T10:53:36;24.75;;;11.82;;
32505;SDS011;18955;51.224;8.482;2023-04-06T10:56:03;33.92;;;11.77;;
32505;SDS011;18955;51.224;8.482;2023-04-06T10:58:34;25.02;;;14.07;;
32505;SDS011;18955;51.224;8.482;2023-04-06T11:01:01;21.80;;;12.50;;
32505;SDS011;18955;51.224;8.482;2023-04-06T11:03:27;19.75;;;11.27;;
32505;SDS011;18955;51.224;8.482;2023-04-06T11:05:54;19.65;;;11.68;;
32505;SDS011;18955;51.224;8.482;2023-04-06T11:08:30;22.55;;;12.77;;
32505;SDS011;18955;51.224;8.482;2023-04-06T11:11:08;22.88;;;12.23;;
32505;SDS011;18955;51.224;8.482;2023-04-06T11:13:42;31.25;;;11.40;;
32505;SDS011;18955;51.224;8.482;2023-04-06T11:16:16;19.95;;;9.90;;
32505;SDS011;18955;51.224;8.482;2023-04-06T11:21:13;29.65;;;11.13;;
32505;SDS011;18955;51.224;8.482;2023-04-06T11:23:40;27.17;;;11.32;;
32505;SDS011;18955;51.224;8.482;2023-04-06T11:26:10;27.60;;;9.55;;
32505;SDS011;18955;51.224;8.482;2023-04-06T11:28:38;21.60;;;11.30;;
32505;SDS011;18955;51.224;8.482;2023-04-06T11:31:09;17.05;;;11.23;;
32505;SDS011;18955;51.224;8.482;2023-04-06T11:33:37;18.10;;;9.90;;
32505;SDS011;18955;51.224;8.482;2023-04-06T11:36:04;22.70;;;10.93;;
32505;SDS011;18955;51.224;8.482;2023-04-06T11:38:31;22.05;;;10.48;;
32505;SDS011;18955;51.224;8.482;2023-04-06T11:40:57;18.42;;;10.98;;
32505;SDS011;18955;51.224;8.482;2023-04-06T11:43:30;21.27;;;10.68;;
32505;SDS011;18955;51.224;8.482;2023-04-06T11:46:00;25.00;;;10.07;;
32505;SDS011;18955;51.224;8.482;2023-04-06T11:48:28;19.48;;;12.43;;
32505;SDS011;18955;51.224;8.482;2023-04-06T11:50:56;26.83;;;9.93;;
32505;SDS011;18955;51.224;8.482;2023-04-06T11:53:24;18.25;;;9.57;;
32505;SDS011;18955;51.224;8.482;2023-04-06T11:55:51;20.80;;;10.48;;
32505;SDS011;18955;51.224;8.482;2023-04-06T11:58:17;18.10;;;10.77;;
32505;SDS011;18955;51.224;8.482;2023-04-06T12:00:43;12.45;;;7.25;;
32505;SDS011;18955;51.224;8.482;2023-04-06T12:03:12;22.67;;;11.20;;
32505;SDS011;18955;51.224;8.482;2023-04-06T12:05:39;18.08;;;9.80;;
32505;SDS011;18955;51.224;8.482;2023-04-06T12:08:05;17.40;;;10.10;;
32505;SDS011;18955;51.224;8.482;2023-04-06T12:10:32;20.92;;;11.52;;
32505;SDS011;18955;51.224;8.482;2023-04-06T12:12:58;23.10;;;8.73;;
32505;SDS011;18955;51.224;8.482;2023-04-06T12:15:24;15.35;;;8.80;;
32505;SDS011;18955;51.224;8.482;2023-04-06T12:17:51;33.90;;;9.93;;
32505;SDS011;18955;51.224;8.482;2023-04-06T12:20:17;19.88;;;8.20;;
32505;SDS011;18955;51.224;8.482;2023-04-06T12:22:43;29.77;;;9.57;;
32505;SDS011;18955;51.224;8.482;2023-04-06T12:25:10;20.85;;;9.30;;
32505;SDS011;18955;51.224;8.482;2023-04-06T12:27:36;16.20;;;8.73;;
32505;SDS011;18955;51.224;8.482;2023-04-06T12:30:02;14.80;;;7.90;;
32505;SDS011;18955;51.224;8.482;2023-04-06T12:32:29;13.88;;;7.15;;
32505;SDS011;18955;51.224;8.482;2023-04-06T12:34:55;18.00;;;9.00;;
32505;SDS011;18955;51.224;8.482;2023-04-06T12:37:22;15.77;;;8.65;;
32505;SDS011;18955;51.224;8.482;2023-04-06T12:39:48;26.98;;;8.70;;
32505;SDS011;18955;51.224;8.482;2023-04-06T12:42:14;14.70;;;7.10;;
32505;SDS011;18955;51.224;8.482;2023-04-06T12:44:41;18.25;;;8.10;;
32505;SDS011;18955;51.224;8.482;2023-04-06T12:47:08;16.30;;;7.30;;
32505;SDS011;18955;51.224;8.482;2023-04-06T12:49:34;12.05;;;6.57;;
32505;SDS011;18955;51.224;8.482;2023-04-06T12:52:01;15.48;;;6.40;;
32505;SDS011;18955;51.224;8.482;2023-04-06T12:54:28;15.65;;;7.88;;
32505;SDS011;18955;51.224;8.482;2023-04-06T12:56:54;15.82;;;7.18;;
32505;SDS011;18955;51.224;8.482;2023-04-06T12:59:22;16.33;;;7.40;;
32505;SDS011;18955;51.224;8.482;2023-04-06T13:01:50;14.68;;;8.10;;
32505;SDS011;18955;51.224;8.482;2023-04-06T13:04:18;12.23;;;6.72;;
32505;SDS011;18955;51.224;8.482;2023-04-06T13:06:44;15.07;;;7.28;;
32505;SDS011;18955;51.224;8.482;2023-04-06T13:09:10;7.63;;;5.43;;
32505;SDS011;18955;51.224;8.482;2023-04-06T13:11:37;14.02;;;6.65;;
32505;SDS011;18955;51.224;8.482;2023-04-06T13:14:04;12.10;;;6.43;;
32505;SDS011;18955;51.224;8.482;2023-04-06T13:16:30;15.73;;;6.53;;
32505;SDS011;18955;51.224;8.482;2023-04-06T13:21:23;14.80;;;6.90;;
32505;SDS011;18955;51.224;8.482;2023-04-06T13:23:50;8.77;;;5.70;;
32505;SDS011;18955;51.224;8.482;2023-04-06T13:26:16;12.45;;;6.82;;
32505;SDS011;18955;51.224;8.482;2023-04-06T13:28:43;11.73;;;7.10;;
32505;SDS011;18955;51.224;8.482;2023-04-06T13:31:09;17.88;;;7.15;;
32505;SDS011;18955;51.224;8.482;2023-04-06T13:33:36;10.07;;;6.25;;
32505;SDS011;18955;51.224;8.482;2023-04-06T13:36:02;15.48;;;6.22;;
32505;SDS011;18955;51.224;8.482;2023-04-06T13:38:29;15.68;;;5.82;;
32505;SDS011;18955;51.224;8.482;2023-04-06T13:40:55;11.80;;;6.70;;
32505;SDS011;18955;51.224;8.482;2023-04-06T13:43:22;13.00;;;4.22;;
32505;SDS011;18955;51.224;8.482;2023-04-06T13:45:50;11.63;;;7.18;;
32505;SDS011;18955;51.224;8.482;2023-04-06T13:48:18;10.20;;;6.18;;
32505;SDS011;18955;51.224;8.482;2023-04-06T13:50:44;12.52;;;5.97;;
32505;SDS011;18955;51.224;8.482;2023-04-06T13:53:13;11.68;;;6.22;;
32505;SDS011;18955;51.224;8.482;2023-04-06T13:55:40;11.48;;;6.38;;
32505;SDS011;18955;51.224;8.482;2023-04-06T13:58:06;12.60;;;6.78;;
32505;SDS011;18955;51.224;8.482;2023-04-06T14:00:32;8.50;;;5.80;;
32505;SDS011;18955;51.224;8.482;2023-04-06T14:02:58;6.43;;;4.55;;
32505;SDS011;18955;51.224;8.482;2023-04-06T14:05:25;11.63;;;5.80;;
32505;SDS011;18955;51.224;8.482;2023-04-06T14:07:53;16.58;;;5.57;;
32505;SDS011;18955;51.224;8.482;2023-04-06T14:12:49;13.10;;;5.97;;
32505;SDS011;18955;51.224;8.482;2023-04-06T14:17:42;11.57;;;5.60;;
32505;SDS011;18955;51.224;8.482;2023-04-06T14:20:08;27.50;;;6.70;;
32505;SDS011;18955;51.224;8.482;2023-04-06T14:22:40;20.55;;;8.52;;
32505;SDS011;18955;51.224;8.482;2023-04-06T14:25:07;29.17;;;7.43;;
32505;SDS011;18955;51.224;8.482;2023-04-06T14:27:34;15.02;;;7.10;;
32505;SDS011;18955;51.224;8.482;2023-04-06T14:30:00;12.30;;;8.07;;
32505;SDS011;18955;51.224;8.482;2023-04-06T14:32:26;12.73;;;6.65;;
32505;SDS011;18955;51.224;8.482;2023-04-06T14:34:52;9.50;;;5.90;;
32505;SDS011;18955;51.224;8.482;2023-04-06T14:37:18;15.32;;;6.90;;
32505;SDS011;18955;51.224;8.482;2023-04-06T14:39:46;23.05;;;7.82;;
32505;SDS011;18955;51.224;8.482;2023-04-06T14:42:12;14.82;;;6.25;;
32505;SDS011;18955;51.224;8.482;2023-04-06T14:44:38;16.33;;;6.20;;
32505;SDS011;18955;51.224;8.482;2023-04-06T14:47:09;14.35;;;7.85;;
32505;SDS011;18955;51.224;8.482;2023-04-06T14:49:35;36.80;;;7.95;;
32505;SDS011;18955;51.224;8.482;2023-04-06T14:52:02;17.45;;;7.10;;
32505;SDS011;18955;51.224;8.482;2023-04-06T14:54:28;35.95;;;8.75;;
32505;SDS011;18955;51.224;8.482;2023-04-06T14:56:54;23.35;;;7.85;;
32505;SDS011;18955;51.224;8.482;2023-04-06T14:59:22;34.03;;;7.60;;
32505;SDS011;18955;51.224;8.482;2023-04-06T15:01:48;16.73;;;5.82;;
32505;SDS011;18955;51.224;8.482;2023-04-06T15:04:14;14.70;;;7.13;;
32505;SDS011;18955;51.224;8.482;2023-04-06T15:06:41;18.77;;;8.07;;
32505;SDS011;18955;51.224;8.482;2023-04-06T15:09:07;18.70;;;8.30;;
32505;SDS011;18955;51.224;8.482;2023-04-06T15:11:33;20.80;;;7.57;;
32505;SDS011;18955;51.224;8.482;2023-04-06T15:14:00;11.50;;;7.68;;
32505;SDS011;18955;51.224;8.482;2023-04-06T15:16:27;21.08;;;8.23;;
32505;SDS011;18955;51.224;8.482;2023-04-06T15:19:00;12.00;;;7.68;;
32505;SDS011;18955;51.224;8.482;2023-04-06T15:21:27;17.33;;;8.25;;
32505;SDS011;18955;51.224;8.482;2023-04-06T15:23:53;15.70;;;8.20;;
32505;SDS011;18955;51.224;8.482;2023-04-06T15:26:21;18.58;;;8.45;;
32505;SDS011;18955;51.224;8.482;2023-04-06T15:28:47;13.52;;;5.18;;
32505;SDS011;18955;51.224;8.482;2023-04-06T15:31:14;19.55;;;8.35;;